Time,TemperatureF,DewpointF,PressureIn,WindDirection,WindDirectionDegrees,WindSpeedMPH,WindSpeedGustMPH,Humidity,HourlyPrecipIn,Conditions,Clouds,dailyrainin,SoftwareType,DateUTC
2013-09-30 02:15:00,48.3,47.2,29.30,SSW,205,2.0,9.0,96,0.06,,---,0.12,VWS V14.01,2013-09-30 09:15:00,
2013-09-30 02:20:00,48.3,47.2,29.31,SSE,162,4.0,9.0,96,0.06,,---,0.12,VWS V14.01,2013-09-30 09:20:00,
2013-09-30 02:25:00,48.3,47.2,29.31,West,263,10.0,10.0,96,0.06,,---,0.12,VWS V14.01,2013-09-30 09:25:00,
2013-09-30 02:30:00,48.4,47.3,29.32,SSW,205,2.0,11.0,96,0.06,,---,0.12,VWS V14.01,2013-09-30 09:30:00,
2013-09-30 02:35:00,48.4,47.3,29.32,West,275,6.0,11.0,96,0.06,,---,0.12,VWS V14.01,2013-09-30 09:35:00,
2013-09-30 02:40:00,48.4,47.3,29.33,SW,228,5.0,12.0,96,0.06,,---,0.12,VWS V14.01,2013-09-30 09:40:00,
2013-09-30 02:45:00,48.2,46.8,29.33,SW,236,2.0,12.0,95,0.06,,---,0.12,VWS V14.01,2013-09-30 09:45:00,
2013-09-30 02:50:00,48.1,46.7,29.33,South,189,5.0,12.0,95,0.06,,---,0.12,VWS V14.01,2013-09-30 09:50:00,
2013-09-30 02:55:00,47.9,46.0,29.33,SW,219,7.0,18.0,93,0.06,,---,0.12,VWS V14.01,2013-09-30 09:55:00,
2013-09-30 03:00:00,47.8,45.6,29.33,West,259,6.0,18.0,92,0.06,,---,0.12,VWS V14.01,2013-09-30 10:00:00,
2013-09-30 03:05:00,47.6,45.4,29.34,SSW,210,7.0,9.0,92,0.00,,---,0.12,VWS V14.01,2013-09-30 10:05:00,
2013-09-30 03:10:00,47.5,45.0,29.34,SW,221,10.0,17.0,91,0.00,,---,0.12,VWS V14.01,2013-09-30 10:10:00,
2013-09-30 03:15:00,47.3,44.8,29.35,SSW,210,6.0,17.0,91,0.00,,---,0.12,VWS V14.01,2013-09-30 10:15:00,
2013-09-30 03:20:00,47.1,44.6,29.35,SW,223,4.0,17.0,91,0.00,,---,0.12,VWS V14.01,2013-09-30 10:20:00,
2013-09-30 03:25:00,46.9,44.1,29.36,SW,218,0.0,17.0,90,0.00,,---,0.12,VWS V14.01,2013-09-30 10:25:00,
2013-09-30 03:30:00,46.7,43.9,29.37,South,188,4.0,17.0,90,0.00,,---,0.12,VWS V14.01,2013-09-30 10:30:00,
2013-09-30 03:35:00,46.5,43.7,29.38,SSE,168,5.0,17.0,90,0.00,,---,0.12,VWS V14.01,2013-09-30 10:35:00,
2013-09-30 03:40:00,46.4,43.9,29.39,SSW,193,1.0,17.0,91,0.00,,---,0.12,VWS V14.01,2013-09-30 10:40:00,
2013-09-30 03:45:00,46.2,43.7,29.40,WSW,238,2.0,17.0,91,0.00,,---,0.12,VWS V14.01,2013-09-30 10:45:00,
2013-09-30 03:50:00,46.1,43.6,29.42,South,189,3.0,17.0,91,0.00,,---,0.12,VWS V14.01,2013-09-30 10:50:00,
2013-09-30 03:55:00,46.0,43.5,29.42,SE,139,5.0,17.0,91,0.00,,---,0.12,VWS V14.01,2013-09-30 10:55:00,
2013-09-30 04:00:00,45.8,43.3,29.42,SW,222,0.0,17.0,91,0.00,,---,0.12,VWS V14.01,2013-09-30 11:00:00,
2013-09-30 04:05:00,45.5,43.0,29.42,WSW,239,1.0,6.0,91,0.00,,---,0.12,VWS V14.01,2013-09-30 11:05:00,
2013-09-30 04:10:00,45.3,42.5,29.42,South,173,2.0,7.0,90,0.00,,---,0.12,VWS V14.01,2013-09-30 11:10:00,
2013-09-30 04:15:00,45.0,42.2,29.43,WNW,300,0.0,7.0,90,0.00,,---,0.12,VWS V14.01,2013-09-30 11:15:00,
2013-09-30 04:20:00,44.7,42.0,29.43,SW,225,2.0,7.0,90,0.00,,---,0.12,VWS V14.01,2013-09-30 11:20:00,
2013-09-30 04:25:00,44.6,41.8,29.44,SW,231,1.0,7.0,90,0.00,,---,0.12,VWS V14.01,2013-09-30 11:25:00,
2013-09-30 04:30:00,44.3,41.6,29.44,SSW,200,1.0,7.0,90,0.00,,---,0.12,VWS V14.01,2013-09-30 11:30:00,
2013-09-30 04:35:00,44.2,41.7,29.44,SW,216,3.0,7.0,91,0.00,,---,0.12,VWS V14.01,2013-09-30 11:35:00,
2013-09-30 04:40:00,44.1,41.9,29.44,WSW,242,6.0,7.0,92,0.00,,---,0.12,VWS V14.01,2013-09-30 11:40:00,
2013-09-30 04:45:00,44.1,42.2,29.45,WSW,242,4.0,8.0,93,0.00,,---,0.12,VWS V14.01,2013-09-30 11:45:00,
2013-09-30 04:50:00,44.1,42.2,29.45,SSW,197,2.0,8.0,93,0.00,,---,0.12,VWS V14.01,2013-09-30 11:50:00,
2013-09-30 04:55:00,44.0,42.1,29.46,SSW,198,2.0,8.0,93,0.00,,---,0.12,VWS V14.01,2013-09-30 11:55:00,
2013-09-30 05:00:00,43.8,41.6,29.45,SSE,162,5.0,8.0,92,0.00,,---,0.12,VWS V14.01,2013-09-30 12:00:00,
2013-09-30 05:05:00,43.6,41.4,29.46,SW,224,3.0,11.0,92,0.00,,---,0.12,VWS V14.01,2013-09-30 12:05:00,
2013-09-30 05:10:00,43.3,40.8,29.47,South,179,5.0,11.0,91,0.00,,---,0.12,VWS V14.01,2013-09-30 12:10:00,
2013-09-30 05:15:00,42.9,40.2,29.46,SSW,212,5.0,11.0,90,0.00,,---,0.12,VWS V14.01,2013-09-30 12:15:00,
2013-09-30 05:20:00,42.6,39.9,29.47,SW,230,1.0,11.0,90,0.00,,---,0.12,VWS V14.01,2013-09-30 12:20:00,
2013-09-30 05:25:00,42.2,39.2,29.47,SSE,157,6.0,11.0,89,0.00,,---,0.12,VWS V14.01,2013-09-30 12:25:00,
2013-09-30 05:30:00,41.9,38.9,29.46,SSW,205,2.0,11.0,89,0.00,,---,0.12,VWS V14.01,2013-09-30 12:30:00,
2013-09-30 05:35:00,41.7,38.7,29.46,West,269,6.0,12.0,89,0.00,,---,0.12,VWS V14.01,2013-09-30 12:35:00,
2013-09-30 05:40:00,41.5,38.2,29.47,South,171,7.0,12.0,88,0.00,,---,0.12,VWS V14.01,2013-09-30 12:40:00,
2013-09-30 05:45:00,41.3,38.0,29.47,SW,227,0.0,12.0,88,0.00,,---,0.12,VWS V14.01,2013-09-30 12:45:00,
2013-09-30 05:50:00,41.1,37.8,29.48,SSW,213,6.0,12.0,88,0.00,,---,0.12,VWS V14.01,2013-09-30 12:50:00,
2013-09-30 05:55:00,41.0,37.7,29.48,SW,234,5.0,12.0,88,0.00,,---,0.12,VWS V14.01,2013-09-30 12:55:00,
2013-09-30 06:00:00,40.8,37.5,29.49,SW,219,3.0,12.0,88,0.00,,---,0.12,VWS V14.01,2013-09-30 13:00:00,
2013-09-30 06:05:00,40.7,37.4,29.49,SSW,193,2.0,12.0,88,0.00,,---,0.12,VWS V14.01,2013-09-30 13:05:00,
2013-09-30 06:10:00,40.7,37.4,29.50,SSE,167,2.0,12.0,88,0.00,,---,0.12,VWS V14.01,2013-09-30 13:10:00,
2013-09-30 06:15:00,40.8,37.8,29.50,SW,215,2.0,12.0,89,0.00,,---,0.12,VWS V14.01,2013-09-30 13:15:00,
2013-09-30 06:20:00,40.8,38.1,29.50,South,175,0.0,12.0,90,0.00,,---,0.12,VWS V14.01,2013-09-30 13:20:00,
2013-09-30 06:25:00,40.8,37.8,29.50,SSW,198,4.0,12.0,89,0.00,,---,0.12,VWS V14.01,2013-09-30 13:25:00,
2013-09-30 06:30:00,40.8,38.1,29.50,SW,220,5.0,12.0,90,0.00,,---,0.12,VWS V14.01,2013-09-30 13:30:00,
2013-09-30 06:35:00,40.8,38.1,29.50,SSW,208,3.0,12.0,90,0.00,,---,0.12,VWS V14.01,2013-09-30 13:35:00,
2013-09-30 06:40:00,40.7,38.0,29.50,SW,217,6.0,12.0,90,0.00,,---,0.12,VWS V14.01,2013-09-30 13:40:00,
2013-09-30 06:45:00,40.6,38.2,29.50,SW,236,3.0,12.0,91,0.00,,---,0.12,VWS V14.01,2013-09-30 13:45:00,
2013-09-30 06:50:00,40.7,38.3,29.50,South,173,1.0,13.0,91,0.00,,---,0.12,VWS V14.01,2013-09-30 13:50:00,
2013-09-30 06:55:00,40.7,38.3,29.50,SW,218,3.0,13.0,91,0.00,,---,0.12,VWS V14.01,2013-09-30 13:55:00,
2013-09-30 07:00:00,40.6,38.2,29.50,SW,233,3.0,13.0,91,0.00,,---,0.12,VWS V14.01,2013-09-30 14:00:00,
2013-09-30 07:05:00,40.7,38.3,29.50,SSW,213,3.0,10.0,91,0.00,,---,0.12,VWS V14.01,2013-09-30 14:05:00,
2013-09-30 07:10:00,40.9,38.5,29.50,South,178,5.0,13.0,91,0.00,,---,0.12,VWS V14.01,2013-09-30 14:10:00,
2013-09-30 07:15:00,41.1,38.7,29.50,WSW,240,4.0,13.0,91,0.00,,---,0.12,VWS V14.01,2013-09-30 14:15:00,
2013-09-30 07:20:00,41.2,38.8,29.51,WSW,239,3.0,16.0,91,0.00,,---,0.12,VWS V14.01,2013-09-30 14:20:00,
2013-09-30 07:25:00,41.3,38.9,29.51,SSE,160,4.0,16.0,91,0.00,,---,0.12,VWS V14.01,2013-09-30 14:25:00,
2013-09-30 07:30:00,41.4,39.0,29.51,SW,232,13.0,16.0,91,0.00,,---,0.12,VWS V14.01,2013-09-30 14:30:00,
2013-09-30 07:35:00,41.5,38.8,29.51,South,173,5.0,16.0,90,0.00,,---,0.12,VWS V14.01,2013-09-30 14:35:00,
2013-09-30 07:40:00,41.7,39.0,29.52,SE,138,5.0,16.0,90,0.00,,---,0.12,VWS V14.01,2013-09-30 14:40:00,
2013-09-30 07:45:00,42.0,39.3,29.52,SW,223,5.0,16.0,90,0.00,,---,0.12,VWS V14.01,2013-09-30 14:45:00,
2013-09-30 07:50:00,42.3,39.6,29.52,SSW,198,2.0,16.0,90,0.00,,---,0.12,VWS V14.01,2013-09-30 14:50:00,
2013-09-30 07:55:00,42.5,39.5,29.52,SSW,205,0.0,16.0,89,0.00,,---,0.12,VWS V14.01,2013-09-30 14:55:00,
2013-09-30 08:00:00,42.8,39.8,29.53,SW,235,4.0,16.0,89,0.00,,---,0.12,VWS V14.01,2013-09-30 15:00:00,
2013-09-30 08:05:00,43.1,40.1,29.53,SW,220,5.0,11.0,89,0.00,,---,0.12,VWS V14.01,2013-09-30 15:05:00,
2013-09-30 08:10:00,43.2,40.2,29.53,SW,234,1.0,11.0,89,0.00,,---,0.12,VWS V14.01,2013-09-30 15:10:00,
2013-09-30 08:15:00,43.5,40.5,29.53,SSW,205,7.0,11.0,89,0.00,,---,0.12,VWS V14.01,2013-09-30 15:15:00,
2013-09-30 08:20:00,43.8,40.5,29.53,SW,236,9.0,14.0,88,0.00,,---,0.12,VWS V14.01,2013-09-30 15:20:00,
2013-09-30 08:25:00,44.0,40.7,29.53,South,184,4.0,14.0,88,0.00,,---,0.12,VWS V14.01,2013-09-30 15:25:00,
2013-09-30 08:30:00,44.1,40.5,29.54,SW,232,5.0,14.0,87,0.00,,---,0.12,VWS V14.01,2013-09-30 15:30:00,
2013-09-30 08:35:00,44.2,40.3,29.54,South,178,6.0,14.0,86,0.00,,---,0.12,VWS V14.01,2013-09-30 15:35:00,
2013-09-30 08:40:00,44.3,40.4,29.54,SSW,200,10.0,17.0,86,0.00,,---,0.12,VWS V14.01,2013-09-30 15:40:00,
2013-09-30 08:45:00,44.5,40.6,29.54,SSE,156,4.0,17.0,86,0.00,,---,0.12,VWS V14.01,2013-09-30 15:45:00,
2013-09-30 08:50:00,44.8,40.6,29.54,SSW,194,6.0,17.0,85,0.00,,---,0.12,VWS V14.01,2013-09-30 15:50:00,
2013-09-30 08:55:00,45.0,40.5,29.55,SSE,164,5.0,17.0,84,0.00,,---,0.12,VWS V14.01,2013-09-30 15:55:00,
2013-09-30 09:00:00,45.1,40.6,29.55,SW,221,5.0,17.0,84,0.00,,---,0.12,VWS V14.01,2013-09-30 16:00:00,
2013-09-30 09:05:00,45.2,40.3,29.55,South,175,6.0,11.0,83,0.00,,---,0.12,VWS V14.01,2013-09-30 16:05:00,
2013-09-30 09:10:00,45.3,40.5,29.56,SW,229,4.0,14.0,83,0.00,,---,0.12,VWS V14.01,2013-09-30 16:10:00,
2013-09-30 09:15:00,45.4,40.5,29.56,WSW,244,8.0,14.0,83,0.00,,---,0.12,VWS V14.01,2013-09-30 16:15:00,
2013-09-30 09:20:00,45.4,40.5,29.55,SW,226,5.0,14.0,83,0.00,,---,0.12,VWS V14.01,2013-09-30 16:20:00,
2013-09-30 09:25:00,45.5,40.3,29.55,South,173,6.0,19.0,82,0.00,,---,0.12,VWS V14.01,2013-09-30 16:25:00,
2013-09-30 09:30:00,45.8,40.6,29.55,SW,223,5.0,19.0,82,0.00,,---,0.12,VWS V14.01,2013-09-30 16:30:00,
2013-09-30 09:35:00,46.2,40.7,29.56,South,182,5.0,19.0,81,0.00,,---,0.12,VWS V14.01,2013-09-30 16:35:00,
2013-09-30 09:40:00,47.1,41.9,29.55,SSW,211,12.0,19.0,82,0.00,,---,0.12,VWS V14.01,2013-09-30 16:40:00,
2013-09-30 09:45:00,47.7,41.8,29.55,WSW,240,5.0,19.0,80,0.00,,---,0.12,VWS V14.01,2013-09-30 16:45:00,
2013-09-30 09:50:00,48.4,41.5,29.56,WSW,249,4.0,19.0,77,0.00,,---,0.12,VWS V14.01,2013-09-30 16:50:00,
2013-09-30 09:55:00,49.0,42.1,29.55,WSW,246,5.0,19.0,77,0.00,,---,0.12,VWS V14.01,2013-09-30 16:55:00,
2013-09-30 10:00:00,49.4,42.2,29.56,SW,225,11.0,19.0,76,0.00,,---,0.12,VWS V14.01,2013-09-30 17:00:00,
2013-09-30 10:05:00,49.6,42.0,29.57,SW,229,7.0,14.0,75,0.00,,---,0.12,VWS V14.01,2013-09-30 17:05:00,
2013-09-30 10:10:00,49.2,41.3,29.57,South,175,4.0,15.0,74,0.00,,---,0.12,VWS V14.01,2013-09-30 17:10:00,
2013-09-30 10:15:00,49.2,41.6,29.57,WSW,244,5.0,15.0,75,0.00,,---,0.12,VWS V14.01,2013-09-30 17:15:00,
2013-09-30 10:20:00,49.4,41.8,29.57,SSW,212,4.0,15.0,75,0.00,,---,0.12,VWS V14.01,2013-09-30 17:20:00,
2013-09-30 10:25:00,49.4,41.8,29.57,NNE,23,4.0,16.0,75,0.00,,---,0.12,VWS V14.01,2013-09-30 17:25:00,
2013-09-30 10:35:00,49.7,42.1,29.58,SSE,148,5.0,17.0,75,0.00,,---,0.12,VWS V14.01,2013-09-30 17:35:00,
2013-09-30 10:40:00,50.1,42.2,29.58,SW,215,7.0,17.0,74,0.00,,---,0.12,VWS V14.01,2013-09-30 17:40:00,
2013-09-30 10:45:00,50.0,41.3,29.58,SSE,155,7.0,19.0,72,0.00,,---,0.12,VWS V14.01,2013-09-30 17:45:00,
2013-09-30 10:51:00,49.8,41.5,29.58,SW,233,9.0,20.0,73,0.00,,---,0.12,VWS V14.01,2013-09-30 17:51:00,
2013-09-30 10:56:00,50.1,41.4,29.58,WSW,251,7.0,20.0,72,0.00,,---,0.12,VWS V14.01,2013-09-30 17:56:00,
2013-09-30 11:01:00,50.4,41.4,29.58,SSW,192,5.0,22.0,71,0.00,,---,0.12,VWS V14.01,2013-09-30 18:01:00,
2013-09-30 11:16:00,51.4,42.3,29.59,WSW,238,9.0,18.0,71,0.00,,---,0.12,VWS V14.01,2013-09-30 18:16:00,
2013-09-30 11:20:00,52.0,42.5,29.59,SSW,212,5.0,18.0,70,0.00,,---,0.12,VWS V14.01,2013-09-30 18:20:00,
2013-09-30 11:25:00,52.1,42.2,29.59,WNW,287,9.0,18.0,69,0.00,,---,0.12,VWS V14.01,2013-09-30 18:25:00,
2013-09-30 11:30:00,52.0,41.8,29.59,SE,142,11.0,18.0,68,0.00,,---,0.12,VWS V14.01,2013-09-30 18:30:00,
2013-09-30 11:35:00,51.8,41.6,29.59,WSW,257,7.0,18.0,68,0.00,,---,0.12,VWS V14.01,2013-09-30 18:35:00,
2013-09-30 11:40:00,51.4,42.0,29.59,SSW,208,12.0,18.0,70,0.00,,---,0.12,VWS V14.01,2013-09-30 18:40:00,
2013-09-30 11:45:00,51.2,41.8,29.60,SSW,199,6.0,18.0,70,0.00,,---,0.12,VWS V14.01,2013-09-30 18:45:00,
2013-09-30 11:50:00,51.4,42.0,29.60,SSW,207,9.0,18.0,70,0.00,,---,0.12,VWS V14.01,2013-09-30 18:50:00,
2013-09-30 11:55:00,51.5,41.7,29.60,SSW,192,4.0,18.0,69,0.00,,---,0.12,VWS V14.01,2013-09-30 18:55:00,
2013-09-30 12:01:00,51.5,41.7,29.60,WSW,244,4.0,18.0,69,0.00,,---,0.12,VWS V14.01,2013-09-30 19:01:00,
2013-09-30 12:06:00,51.5,42.0,29.60,SE,124,8.0,13.0,70,0.00,,---,0.12,VWS V14.01,2013-09-30 19:06:00,
2013-09-30 12:11:00,51.6,42.2,29.60,South,184,9.0,20.0,70,0.00,,---,0.12,VWS V14.01,2013-09-30 19:11:00,
2013-09-30 12:15:00,51.9,42.1,29.60,WSW,255,9.0,20.0,69,0.00,,---,0.12,VWS V14.01,2013-09-30 19:15:00,
2013-09-30 12:20:00,52.3,42.8,29.61,SSW,192,4.0,20.0,70,0.00,,---,0.12,VWS V14.01,2013-09-30 19:20:00,
2013-09-30 12:26:00,53.2,42.9,29.60,SW,221,7.0,20.0,68,0.00,,---,0.12,VWS V14.01,2013-09-30 19:26:00,
2013-09-30 12:31:00,54.0,44.1,29.61,SSW,205,10.0,20.0,69,0.00,,---,0.12,VWS V14.01,2013-09-30 19:31:00,
2013-09-30 12:35:00,54.2,43.1,29.61,SSW,205,11.0,20.0,66,0.00,,---,0.12,VWS V14.01,2013-09-30 19:35:00,
2013-09-30 12:40:00,53.7,43.0,29.61,SW,234,6.0,20.0,67,0.00,,---,0.12,VWS V14.01,2013-09-30 19:40:00,
2013-09-30 12:45:00,53.4,42.3,29.62,SW,221,10.0,21.0,66,0.00,,---,0.12,VWS V14.01,2013-09-30 19:45:00,
2013-09-30 12:50:00,53.9,42.8,29.62,SSW,198,9.0,21.0,66,0.00,,---,0.12,VWS V14.01,2013-09-30 19:50:00,
2013-09-30 12:55:00,53.9,42.0,29.62,SSW,196,10.0,21.0,64,0.00,,---,0.12,VWS V14.01,2013-09-30 19:55:00,
2013-09-30 13:00:00,53.6,42.5,29.62,SW,236,3.0,21.0,66,0.00,,---,0.12,VWS V14.01,2013-09-30 20:00:00,
2013-09-30 13:05:00,53.2,41.8,29.62,SW,216,5.0,16.0,65,0.00,,---,0.12,VWS V14.01,2013-09-30 20:05:00,
2013-09-30 13:10:00,52.8,41.8,29.63,SW,232,15.0,16.0,66,0.00,,---,0.12,VWS V14.01,2013-09-30 20:10:00,
2013-09-30 13:15:00,52.4,41.8,29.63,West,263,14.0,18.0,67,0.00,,---,0.12,VWS V14.01,2013-09-30 20:15:00,
2013-09-30 13:20:00,52.4,42.5,29.63,South,178,6.0,18.0,69,0.00,,---,0.12,VWS V14.01,2013-09-30 20:20:00,
2013-09-30 13:26:00,52.7,43.2,29.63,WSW,239,2.0,18.0,70,0.00,,---,0.12,VWS V14.01,2013-09-30 20:26:00,
2013-09-30 13:31:00,53.0,43.1,29.63,South,184,10.0,18.0,69,0.00,,---,0.12,VWS V14.01,2013-09-30 20:31:00,
2013-09-30 13:36:00,52.8,42.9,29.63,SW,223,2.0,18.0,69,0.00,,---,0.12,VWS V14.01,2013-09-30 20:36:00,
2013-09-30 13:41:00,52.8,42.5,29.63,SW,228,6.0,18.0,68,0.00,,---,0.12,VWS V14.01,2013-09-30 20:41:00,
2013-09-30 13:46:00,52.8,42.9,29.63,SW,225,5.0,18.0,69,0.00,,---,0.12,VWS V14.01,2013-09-30 20:46:00,
2013-09-30 13:51:00,53.3,42.6,29.63,South,175,8.0,23.0,67,0.00,,---,0.12,VWS V14.01,2013-09-30 20:51:00,
2013-09-30 13:56:00,53.8,43.1,29.63,SW,222,5.0,23.0,67,0.00,,---,0.12,VWS V14.01,2013-09-30 20:56:00,
2013-09-30 14:01:00,54.4,42.9,29.63,SSW,199,3.0,23.0,65,0.00,,---,0.12,VWS V14.01,2013-09-30 21:01:00,
2013-09-30 14:06:00,54.6,43.1,29.63,SW,236,4.0,17.0,65,0.00,,---,0.12,VWS V14.01,2013-09-30 21:06:00,
2013-09-30 14:11:00,55.3,42.9,29.63,SSW,212,7.0,17.0,63,0.00,,---,0.12,VWS V14.01,2013-09-30 21:11:00,
2013-09-30 14:15:00,55.9,43.5,29.64,SW,230,5.0,17.0,63,0.00,,---,0.12,VWS V14.01,2013-09-30 21:15:00,
2013-09-30 14:20:00,56.1,43.7,29.64,SSW,211,9.0,19.0,63,0.00,,---,0.12,VWS V14.01,2013-09-30 21:20:00,
2013-09-30 14:25:00,56.0,43.2,29.64,South,185,14.0,19.0,62,0.00,,---,0.12,VWS V14.01,2013-09-30 21:25:00,
2013-09-30 14:30:00,55.9,42.7,29.65,South,178,9.0,19.0,61,0.00,,---,0.12,VWS V14.01,2013-09-30 21:30:00,
2013-09-30 14:35:00,55.3,42.9,29.65,SSW,212,5.0,19.0,63,0.00,,---,0.12,VWS V14.01,2013-09-30 21:35:00,
2013-09-30 14:40:00,55.0,42.2,29.65,SW,225,6.0,19.0,62,0.00,,---,0.12,VWS V14.01,2013-09-30 21:40:00,
2013-09-30 14:45:00,54.9,42.6,29.65,ESE,105,11.0,19.0,63,0.00,,---,0.12,VWS V14.01,2013-09-30 21:45:00,
2013-09-30 14:50:00,55.0,41.8,29.65,SW,236,5.0,19.0,61,0.00,,---,0.12,VWS V14.01,2013-09-30 21:50:00,
2013-09-30 14:55:00,54.8,41.6,29.66,SSE,157,5.0,19.0,61,0.00,,---,0.12,VWS V14.01,2013-09-30 21:55:00,
2013-09-30 15:00:00,54.6,42.3,29.66,SW,218,12.0,19.0,63,0.00,,---,0.12,VWS V14.01,2013-09-30 22:00:00,
2013-09-30 15:05:00,54.5,42.2,29.66,SW,218,6.0,14.0,63,0.00,,---,0.12,VWS V14.01,2013-09-30 22:05:00,
2013-09-30 15:10:00,54.5,42.6,29.66,SSW,200,7.0,14.0,64,0.00,,---,0.12,VWS V14.01,2013-09-30 22:10:00,
2013-09-30 15:15:00,54.4,42.1,29.67,SSW,193,10.0,18.0,63,0.00,,---,0.12,VWS V14.01,2013-09-30 22:15:00,
2013-09-30 15:20:00,54.3,42.0,29.67,SSW,200,4.0,18.0,63,0.00,,---,0.12,VWS V14.01,2013-09-30 22:20:00,
2013-09-30 15:25:00,54.3,42.0,29.67,SW,216,6.0,18.0,63,0.00,,---,0.12,VWS V14.01,2013-09-30 22:25:00,
2013-09-30 15:30:00,54.5,42.6,29.67,SE,128,8.0,18.0,64,0.00,,---,0.12,VWS V14.01,2013-09-30 22:30:00,
2013-09-30 15:35:00,54.7,42.8,29.67,SW,219,4.0,18.0,64,0.00,,---,0.12,VWS V14.01,2013-09-30 22:35:00,
2013-09-30 15:40:00,54.9,42.1,29.68,SW,215,9.0,21.0,62,0.00,,---,0.12,VWS V14.01,2013-09-30 22:40:00,
2013-09-30 15:45:00,55.0,42.2,29.68,WSW,239,4.0,21.0,62,0.00,,---,0.12,VWS V14.01,2013-09-30 22:45:00,
2013-09-30 15:50:00,55.2,42.0,29.68,WSW,255,5.0,22.0,61,0.00,,---,0.12,VWS V14.01,2013-09-30 22:50:00,
2013-09-30 15:55:00,55.2,42.4,29.68,SE,138,5.0,22.0,62,0.00,,---,0.12,VWS V14.01,2013-09-30 22:55:00,
2013-09-30 16:00:00,55.2,42.8,29.68,WSW,255,7.0,22.0,63,0.00,,---,0.12,VWS V14.01,2013-09-30 23:00:00,
2013-09-30 16:05:00,55.2,42.8,29.68,WSW,238,8.0,15.0,63,0.00,,---,0.12,VWS V14.01,2013-09-30 23:05:00,
2013-09-30 16:10:00,55.1,42.8,29.68,SE,134,5.0,16.0,63,0.00,,---,0.12,VWS V14.01,2013-09-30 23:10:00,
2013-09-30 16:15:00,54.6,42.7,29.69,SSW,207,5.0,16.0,64,0.00,,---,0.12,VWS V14.01,2013-09-30 23:15:00,
2013-09-30 16:20:00,54.2,42.7,29.68,SW,219,2.0,16.0,65,0.00,,---,0.12,VWS V14.01,2013-09-30 23:20:00,
2013-09-30 16:25:00,54.0,42.5,29.68,SSW,198,8.0,16.0,65,0.00,,---,0.12,VWS V14.01,2013-09-30 23:25:00,
2013-09-30 16:30:00,53.9,42.8,29.69,SW,225,5.0,16.0,66,0.00,,---,0.12,VWS V14.01,2013-09-30 23:30:00,
2013-09-30 16:35:00,53.8,42.3,29.69,South,178,5.0,16.0,65,0.00,,---,0.12,VWS V14.01,2013-09-30 23:35:00,
2013-09-30 16:40:00,53.8,41.9,29.69,South,186,6.0,17.0,64,0.00,,---,0.12,VWS V14.01,2013-09-30 23:40:00,
2013-09-30 16:45:00,53.7,42.2,29.69,NNW,329,4.0,17.0,65,0.00,,---,0.12,VWS V14.01,2013-09-30 23:45:00,
2013-09-30 16:50:00,53.5,42.4,29.69,SE,132,7.0,17.0,66,0.00,,---,0.12,VWS V14.01,2013-09-30 23:50:00,
2013-09-30 16:55:00,53.5,42.8,29.69,West,259,4.0,17.0,67,0.00,,---,0.12,VWS V14.01,2013-09-30 23:55:00,
2013-09-30 17:00:00,53.6,42.5,29.69,WSW,246,4.0,17.0,66,0.00,,---,0.12,VWS V14.01,2013-10-01 00:00:00,
2013-09-30 17:05:00,53.5,42.8,29.70,SW,222,4.0,8.0,67,0.00,,---,0.12,VWS V14.01,2013-10-01 00:05:00,
2013-09-30 17:10:00,53.2,42.5,29.70,WSW,254,2.0,8.0,67,0.00,,---,0.12,VWS V14.01,2013-10-01 00:10:00,
2013-09-30 17:15:00,53.0,42.7,29.70,SSE,157,0.0,8.0,68,0.00,,---,0.12,VWS V14.01,2013-10-01 00:15:00,
2013-09-30 17:21:00,52.9,43.0,29.70,SSW,204,4.0,12.0,69,0.00,,---,0.12,VWS V14.01,2013-10-01 00:21:00,
2013-09-30 17:26:00,52.8,42.9,29.70,SSE,156,5.0,12.0,69,0.00,,---,0.12,VWS V14.01,2013-10-01 00:26:00,
2013-09-30 17:31:00,52.7,42.8,29.70,SW,223,4.0,12.0,69,0.00,,---,0.12,VWS V14.01,2013-10-01 00:31:00,
2013-09-30 17:36:00,52.8,42.9,29.70,SW,225,8.0,12.0,69,0.00,,---,0.12,VWS V14.01,2013-10-01 00:36:00,
2013-09-30 17:41:00,53.0,42.7,29.70,South,186,5.0,12.0,68,0.00,,---,0.12,VWS V14.01,2013-10-01 00:41:00,
2013-09-30 17:46:00,52.8,42.2,29.69,SW,223,3.0,12.0,67,0.00,,---,0.12,VWS V14.01,2013-10-01 00:46:00,
2013-09-30 17:51:00,52.6,42.3,29.70,SSW,193,3.0,12.0,68,0.00,,---,0.12,VWS V14.01,2013-10-01 00:51:00,
2013-09-30 17:56:00,52.3,42.1,29.69,SW,215,7.0,12.0,68,0.00,,---,0.12,VWS V14.01,2013-10-01 00:56:00,
2013-09-30 18:01:00,52.1,42.2,29.69,SW,225,6.0,6.0,69,0.00,,---,0.12,VWS V14.01,2013-10-01 01:01:00,
2013-09-30 18:06:00,52.0,41.8,29.69,SSW,200,3.0,12.0,68,0.00,,---,0.12,VWS V14.01,2013-10-01 01:06:00,
2013-09-30 18:11:00,51.8,41.6,29.69,SW,219,7.0,15.0,68,0.00,,---,0.12,VWS V14.01,2013-10-01 01:11:00,
2013-09-30 18:16:00,51.7,41.5,29.69,SSE,153,8.0,15.0,68,0.00,,---,0.12,VWS V14.01,2013-10-01 01:16:00,
2013-09-30 18:21:00,51.5,41.7,29.70,SSE,167,4.0,15.0,69,0.00,,---,0.12,VWS V14.01,2013-10-01 01:21:00,
2013-09-30 18:26:00,51.4,41.2,29.70,SSW,213,4.0,15.0,68,0.00,,---,0.12,VWS V14.01,2013-10-01 01:26:00,
2013-09-30 18:31:00,51.1,40.9,29.70,SW,226,2.0,15.0,68,0.00,,---,0.12,VWS V14.01,2013-10-01 01:31:00,
2013-09-30 18:36:00,50.9,41.1,29.70,SSW,198,4.0,15.0,69,0.00,,---,0.12,VWS V14.01,2013-10-01 01:36:00,
2013-09-30 18:41:00,50.7,40.9,29.70,SW,227,2.0,15.0,69,0.00,,---,0.12,VWS V14.01,2013-10-01 01:41:00,
2013-09-30 18:46:00,50.5,40.7,29.70,SW,227,7.0,15.0,69,0.00,,---,0.12,VWS V14.01,2013-10-01 01:46:00,
2013-09-30 18:51:00,50.5,41.1,29.70,SW,223,2.0,15.0,70,0.00,,---,0.12,VWS V14.01,2013-10-01 01:51:00,
2013-09-30 18:56:00,50.4,41.0,29.70,SW,232,2.0,15.0,70,0.00,,---,0.12,VWS V14.01,2013-10-01 01:56:00,
2013-09-30 19:01:00,50.4,41.0,29.71,SW,225,5.0,6.0,70,0.00,,---,0.12,VWS V14.01,2013-10-01 02:01:00,
2013-09-30 19:06:00,50.4,40.6,29.71,WSW,254,5.0,8.0,69,0.00,,---,0.12,VWS V14.01,2013-10-01 02:06:00,
2013-09-30 19:11:00,50.4,41.0,29.71,SSE,147,6.0,14.0,70,0.00,,---,0.12,VWS V14.01,2013-10-01 02:11:00,
2013-09-30 19:16:00,50.4,41.0,29.72,SSW,213,12.0,14.0,70,0.00,,---,0.12,VWS V14.01,2013-10-01 02:16:00,
2013-09-30 19:21:00,50.3,40.5,29.72,SW,225,6.0,14.0,69,0.00,,---,0.12,VWS V14.01,2013-10-01 02:21:00,
2013-09-30 19:26:00,50.1,40.7,29.72,SW,225,2.0,14.0,70,0.00,,---,0.12,VWS V14.01,2013-10-01 02:26:00,
2013-09-30 19:31:00,50.0,41.0,29.72,South,189,3.0,14.0,71,0.00,,---,0.12,VWS V14.01,2013-10-01 02:31:00,
2013-09-30 19:36:00,49.7,40.7,29.72,WSW,244,3.0,14.0,71,0.00,,---,0.12,VWS V14.01,2013-10-01 02:36:00,
2013-09-30 19:41:00,49.6,40.6,29.72,SW,224,0.0,14.0,71,0.00,,---,0.12,VWS V14.01,2013-10-01 02:41:00,
2013-09-30 19:46:00,49.4,40.8,29.72,South,181,4.0,14.0,72,0.00,,---,0.12,VWS V14.01,2013-10-01 02:46:00,
2013-09-30 19:51:00,49.1,40.5,29.73,South,187,3.0,14.0,72,0.00,,---,0.12,VWS V14.01,2013-10-01 02:51:00,
2013-09-30 19:56:00,48.9,40.6,29.73,SSW,209,9.0,14.0,73,0.00,,---,0.12,VWS V14.01,2013-10-01 02:56:00,
2013-09-30 20:01:00,48.8,40.5,29.73,SW,217,5.0,5.0,73,0.00,,---,0.12,VWS V14.01,2013-10-01 03:01:00,
2013-09-30 20:06:00,48.6,40.3,29.73,SW,217,10.0,11.0,73,0.00,,---,0.12,VWS V14.01,2013-10-01 03:06:00,
2013-09-30 20:11:00,48.5,40.2,29.73,SSE,163,4.0,16.0,73,0.00,,---,0.12,VWS V14.01,2013-10-01 03:11:00,
2013-09-30 20:16:00,48.4,40.2,29.73,SW,218,8.0,16.0,73,0.00,,---,0.12,VWS V14.01,2013-10-01 03:16:00,
2013-09-30 20:21:00,48.4,40.2,29.73,SSW,207,5.0,16.0,73,0.00,,---,0.12,VWS V14.01,2013-10-01 03:21:00,
2013-09-30 20:26:00,48.3,40.1,29.73,SSE,166,2.0,16.0,73,0.00,,---,0.12,VWS V14.01,2013-10-01 03:26:00,
2013-09-30 20:31:00,48.3,40.1,29.73,SW,214,4.0,16.0,73,0.00,,---,0.12,VWS V14.01,2013-10-01 03:31:00,
2013-09-30 20:36:00,48.3,40.1,29.73,SSW,200,6.0,16.0,73,0.00,,---,0.12,VWS V14.01,2013-10-01 03:36:00,
2013-09-30 20:41:00,48.3,40.1,29.73,SW,225,4.0,16.0,73,0.00,,---,0.12,VWS V14.01,2013-10-01 03:41:00,
2013-09-30 20:46:00,48.3,40.1,29.74,SSE,159,7.0,16.0,73,0.00,,---,0.12,VWS V14.01,2013-10-01 03:46:00,
2013-09-30 20:51:00,48.3,40.1,29.74,SW,219,6.0,16.0,73,0.00,,---,0.12,VWS V14.01,2013-10-01 03:51:00,
2013-09-30 20:56:00,48.4,40.2,29.74,SW,219,6.0,16.0,73,0.00,,---,0.12,VWS V14.01,2013-10-01 03:56:00,
2013-09-30 21:01:00,48.4,40.2,29.75,SSW,209,4.0,16.0,73,0.00,,---,0.12,VWS V14.01,2013-10-01 04:01:00,
2013-09-30 21:06:00,48.5,40.2,29.75,SW,223,5.0,8.0,73,0.00,,---,0.12,VWS V14.01,2013-10-01 04:06:00,
2013-09-30 21:11:00,48.4,40.5,29.75,SW,234,0.0,8.0,74,0.00,,---,0.12,VWS V14.01,2013-10-01 04:11:00,
2013-09-30 21:16:00,48.4,40.5,29.75,SW,215,1.0,10.0,74,0.00,,---,0.12,VWS V14.01,2013-10-01 04:16:00,
2013-09-30 21:21:00,48.4,40.5,29.75,SSE,165,1.0,10.0,74,0.00,,---,0.12,VWS V14.01,2013-10-01 04:21:00,
2013-09-30 21:26:00,48.3,40.4,29.75,SW,218,1.0,10.0,74,0.00,,---,0.12,VWS V14.01,2013-10-01 04:26:00,
2013-09-30 21:31:00,48.2,40.3,29.75,SW,218,5.0,10.0,74,0.00,,---,0.12,VWS V14.01,2013-10-01 04:31:00,
2013-09-30 21:36:00,48.2,40.3,29.75,SSW,208,2.0,10.0,74,0.00,,---,0.12,VWS V14.01,2013-10-01 04:36:00,
2013-09-30 21:41:00,48.1,40.6,29.76,SSW,210,1.0,10.0,75,0.00,,---,0.12,VWS V14.01,2013-10-01 04:41:00,
2013-09-30 21:46:00,48.0,40.5,29.76,South,180,0.0,10.0,75,0.00,,---,0.12,VWS V14.01,2013-10-01 04:46:00,
2013-09-30 21:51:00,47.8,40.3,29.76,WSW,244,2.0,10.0,75,0.00,,---,0.12,VWS V14.01,2013-10-01 04:51:00,
2013-09-30 21:56:00,47.6,40.1,29.76,SW,227,1.0,10.0,75,0.00,,---,0.12,VWS V14.01,2013-10-01 04:56:00,
2013-09-30 22:01:00,47.3,40.1,29.76,SE,144,4.0,5.0,76,0.00,,---,0.12,VWS V14.01,2013-10-01 05:01:00,
2013-09-30 22:06:00,47.0,39.8,29.76,South,169,4.0,8.0,76,0.00,,---,0.12,VWS V14.01,2013-10-01 05:06:00,
2013-09-30 22:11:00,46.8,40.0,29.76,SW,223,2.0,8.0,77,0.00,,---,0.12,VWS V14.01,2013-10-01 05:11:00,
2013-09-30 22:16:00,46.6,39.8,29.76,SW,232,3.0,9.0,77,0.00,,---,0.12,VWS V14.01,2013-10-01 05:16:00,
2013-09-30 22:21:00,46.4,39.9,29.76,SSW,205,4.0,9.0,78,0.00,,---,0.12,VWS V14.01,2013-10-01 05:21:00,
2013-09-30 22:26:00,46.2,39.7,29.77,SSW,213,0.0,9.0,78,0.00,,---,0.12,VWS V14.01,2013-10-01 05:26:00,
2013-09-30 22:31:00,46.0,39.5,29.77,SSE,155,1.0,9.0,78,0.00,,---,0.12,VWS V14.01,2013-10-01 05:31:00,
2013-09-30 22:36:00,45.8,39.7,29.77,SW,219,7.0,9.0,79,0.00,,---,0.12,VWS V14.01,2013-10-01 05:36:00,
2013-09-30 22:41:00,45.6,39.5,29.77,South,185,3.0,9.0,79,0.00,,---,0.12,VWS V14.01,2013-10-01 05:41:00,
2013-09-30 22:46:00,45.3,39.5,29.76,SW,225,1.0,9.0,80,0.00,,---,0.12,VWS V14.01,2013-10-01 05:46:00,
2013-09-30 22:51:00,45.1,39.3,29.77,SW,229,2.0,9.0,80,0.00,,---,0.12,VWS V14.01,2013-10-01 05:51:00,
2013-09-30 22:56:00,44.8,39.3,29.77,West,269,0.0,9.0,81,0.00,,---,0.12,VWS V14.01,2013-10-01 05:56:00,
2013-09-30 23:01:00,44.6,39.1,29.77,SSE,167,1.0,2.0,81,0.00,,---,0.12,VWS V14.01,2013-10-01 06:01:00,
2013-09-30 23:06:00,44.3,39.2,29.77,South,185,2.0,10.0,82,0.00,,---,0.12,VWS V14.01,2013-10-01 06:06:00,
2013-09-30 23:11:00,44.1,39.0,29.77,SSW,212,2.0,10.0,82,0.00,,---,0.12,VWS V14.01,2013-10-01 06:11:00,
2013-09-30 23:16:00,43.9,38.8,29.77,SSW,212,3.0,10.0,82,0.00,,---,0.12,VWS V14.01,2013-10-01 06:16:00,
2013-09-30 23:21:00,43.7,38.6,29.78,SSE,153,2.0,10.0,82,0.00,,---,0.12,VWS V14.01,2013-10-01 06:21:00,
2013-09-30 23:26:00,43.4,38.6,29.78,SSW,213,3.0,10.0,83,0.00,,---,0.12,VWS V14.01,2013-10-01 06:26:00,
2013-09-30 23:31:00,43.3,38.8,29.78,SW,236,3.0,10.0,84,0.00,,---,0.12,VWS V14.01,2013-10-01 06:31:00,
2013-09-30 23:36:00,43.2,38.7,29.78,SSW,200,2.0,14.0,84,0.00,,---,0.12,VWS V14.01,2013-10-01 06:36:00,
2013-09-30 23:41:00,43.1,38.6,29.78,SW,235,2.0,14.0,84,0.00,,---,0.12,VWS V14.01,2013-10-01 06:41:00,
2013-09-30 23:46:00,43.0,38.5,29.78,SW,223,1.0,14.0,84,0.00,,---,0.12,VWS V14.01,2013-10-01 06:46:00,
2013-09-30 23:51:00,43.0,38.5,29.78,South,180,3.0,14.0,84,0.00,,---,0.12,VWS V14.01,2013-10-01 06:51:00,
2013-09-30 23:56:00,42.9,38.4,29.78,South,190,0.0,14.0,84,0.00,,---,0.12,VWS V14.01,2013-10-01 06:56:00,